createdAt,value
2022-11-02T00:02:41.075Z,64.51
2022-11-02T00:06:41.497Z,64.20
2022-11-02T00:10:41.707Z,63.61
2022-11-02T00:14:44.458Z,63.02
2022-11-02T00:18:47.663Z,62.66
2022-11-02T00:22:50.619Z,62.59
2022-11-02T00:26:50.995Z,62.67
2022-11-02T00:30:53.779Z,63.09
2022-11-02T00:34:53.880Z,63.24
2022-11-02T00:38:54.273Z,63.05
2022-11-02T00:42:54.404Z,63.19
2022-11-02T00:46:57.193Z,63.72
2022-11-02T00:50:58.362Z,63.54
2022-11-02T00:55:01.788Z,63.33
2022-11-02T00:59:03.351Z,62.68
2022-11-02T01:03:06.562Z,63.26
2022-11-02T01:07:07.419Z,63.21
2022-11-02T01:11:16.504Z,63.73
2022-11-02T01:15:17.498Z,63.73
2022-11-02T01:19:20.269Z,63.51
2022-11-02T01:23:20.372Z,63.51
2022-11-02T01:27:21.117Z,63.36
2022-11-02T01:31:21.486Z,63.81
2022-11-02T01:35:24.260Z,63.03
2022-11-02T01:39:24.444Z,63.05
2022-11-02T01:43:27.629Z,62.59
2022-11-02T01:47:32.580Z,62.43
2022-11-02T01:51:42.755Z,62.10
2022-11-02T01:55:44.260Z,61.89
2022-11-02T01:59:50.711Z,62.11
2022-11-02T02:03:52.750Z,62.19
2022-11-02T02:07:56.687Z,62.13
2022-11-02T02:11:56.806Z,62.60
2022-11-02T02:16:10.953Z,62.48
2022-11-02T02:20:23.472Z,62.41
2022-11-02T02:24:51.186Z,62.28
2022-11-02T02:29:02.667Z,62.46
2022-11-02T02:33:11.931Z,62.53
2022-11-02T02:37:21.458Z,62.31
2022-11-02T02:41:32.107Z,62.56
2022-11-02T02:45:41.496Z,62.29
2022-11-02T02:49:53.375Z,62.08
2022-11-02T02:54:03.325Z,62.00
2022-11-02T02:58:07.313Z,62.64
2022-11-02T03:02:19.870Z,62.60
2022-11-02T03:06:27.605Z,62.62
2022-11-02T03:10:37.591Z,62.64
2022-11-02T03:14:55.843Z,62.55
2022-11-02T03:19:15.414Z,62.43
2022-11-02T03:23:24.535Z,61.85
2022-11-02T03:27:36.868Z,62.01
2022-11-02T03:31:44.345Z,61.86
2022-11-02T03:35:58.204Z,62.40
2022-11-02T03:40:11.847Z,61.88
2022-11-02T03:44:20.120Z,62.28
2022-11-02T03:48:24.692Z,62.80
2022-11-02T03:52:35.198Z,61.82
2022-11-02T03:56:42.345Z,62.58
2022-11-02T04:00:53.079Z,62.45
2022-11-02T04:04:55.202Z,62.45
2022-11-02T04:09:00.990Z,63.05
2022-11-02T04:13:26.089Z,63.11
2022-11-02T04:17:38.824Z,62.60
2022-11-02T04:22:04.774Z,62.93
2022-11-02T04:26:07.243Z,63.56
2022-11-02T04:30:16.187Z,63.71
2022-11-02T04:34:16.448Z,63.72
2022-11-02T04:38:29.186Z,62.94
2022-11-02T04:42:33.494Z,62.83
2022-11-02T04:46:38.250Z,62.46
2022-11-02T04:50:40.279Z,62.43
2022-11-02T04:54:42.053Z,62.63
2022-11-02T04:58:45.223Z,62.53
2022-11-02T05:02:45.556Z,62.74
2022-11-02T05:06:45.818Z,62.69
2022-11-02T05:10:46.259Z,62.55
2022-11-02T05:14:49.416Z,62.56
2022-11-02T05:18:50.476Z,63.28
2022-11-02T05:22:52.499Z,63.04
2022-11-02T05:26:54.619Z,62.87
2022-11-02T05:31:03.352Z,62.68
2022-11-02T05:35:06.234Z,62.47
2022-11-02T05:39:07.369Z,62.71
2022-11-02T05:43:08.187Z,62.47
2022-11-02T05:47:11.910Z,62.48
2022-11-02T05:51:13.955Z,62.42
2022-11-02T05:55:14.855Z,62.03
2022-11-02T05:59:15.031Z,62.41
2022-11-02T06:03:17.943Z,62.86
2022-11-02T06:07:18.068Z,62.95
2022-11-02T06:11:20.234Z,63.00
2022-11-02T06:15:20.528Z,62.78
2022-11-02T06:19:23.364Z,62.65
2022-11-02T06:23:23.585Z,63.08
2022-11-02T06:27:25.599Z,63.43
2022-11-02T06:31:25.938Z,63.29
2022-11-02T06:35:28.678Z,63.82
2022-11-02T06:39:28.826Z,63.45
2022-11-02T06:43:29.360Z,63.93
2022-11-02T06:47:33.981Z,63.58
2022-11-02T06:51:37.024Z,63.24
2022-11-02T06:55:37.219Z,63.11
2022-11-02T06:59:37.435Z,62.94
2022-11-02T07:03:38.160Z,62.15
2022-11-02T07:07:40.942Z,61.63
2022-11-02T07:11:41.078Z,61.56
2022-11-02T07:15:42.121Z,61.91
2022-11-02T07:19:42.319Z,61.69
2022-11-02T07:23:45.050Z,62.38
2022-11-02T07:27:45.181Z,61.59
2022-11-02T07:31:45.487Z,60.68
2022-11-02T07:35:45.608Z,59.64
2022-11-02T07:39:48.415Z,59.08
2022-11-02T07:43:48.689Z,59.47
2022-11-02T07:47:58.697Z,59.32
2022-11-02T07:51:59.541Z,59.15
2022-11-02T07:56:03.696Z,59.12
2022-11-02T08:00:03.915Z,57.87
2022-11-02T08:04:11.760Z,56.85
2022-11-02T08:08:15.960Z,57.04
2022-11-02T08:12:18.768Z,56.06
2022-11-02T08:16:18.888Z,54.15
2022-11-02T08:20:19.998Z,54.33
2022-11-02T08:24:20.208Z,53.28
2022-11-02T08:28:25.892Z,51.66
2022-11-02T08:32:26.023Z,50.28
2022-11-02T08:36:26.144Z,50.42
2022-11-02T08:40:27.040Z,49.38
2022-11-02T08:44:29.831Z,48.45
2022-11-02T08:48:30.465Z,47.10
2022-11-02T08:52:30.613Z,47.01
2022-11-02T08:56:33.736Z,47.10
2022-11-02T09:00:37.806Z,46.70
2022-11-02T09:04:38.030Z,46.06
2022-11-02T09:08:38.237Z,46.26
2022-11-02T09:12:38.498Z,46.70
2022-11-02T09:16:41.891Z,46.07
2022-11-02T09:20:42.099Z,45.71
2022-11-02T09:24:42.216Z,46.27
2022-11-02T09:28:42.532Z,45.81
2022-11-02T09:32:45.213Z,46.50
2022-11-02T09:36:45.686Z,48.64
2022-11-02T09:40:54.037Z,49.09
2022-11-02T09:45:03.374Z,47.65
2022-11-02T09:49:14.072Z,47.81
2022-11-02T09:53:24.711Z,48.13
2022-11-02T09:57:31.788Z,48.01
2022-11-02T10:01:56.221Z,49.82
2022-11-02T10:06:06.572Z,55.23
2022-11-02T10:10:17.959Z,58.39
2022-11-02T10:14:25.376Z,58.45
2022-11-02T10:18:30.042Z,58.70
2022-11-02T10:22:40.579Z,58.82
2022-11-02T10:26:43.651Z,58.77
2022-11-02T10:30:46.737Z,57.07
2022-11-02T10:34:58.511Z,55.52
2022-11-02T10:39:22.029Z,52.69
2022-11-02T10:43:41.083Z,50.95
2022-11-02T10:47:55.649Z,48.41
2022-11-02T10:51:55.823Z,46.65
2022-11-02T10:56:07.734Z,45.08
2022-11-02T11:00:32.636Z,43.53
2022-11-02T11:04:35.144Z,42.15
2022-11-02T11:08:42.699Z,42.06
2022-11-02T11:12:46.467Z,42.08
2022-11-02T11:16:51.897Z,39.76
2022-11-02T11:20:58.855Z,40.08
2022-11-02T11:25:28.029Z,38.92
2022-11-02T11:29:34.997Z,41.13
2022-11-02T11:33:43.832Z,41.42
2022-11-02T11:37:52.512Z,40.65
2022-11-02T11:41:52.892Z,41.76
2022-11-02T11:46:07.242Z,41.92
2022-11-02T11:50:20.017Z,42.06
2022-11-02T11:54:28.509Z,43.65
2022-11-02T11:58:30.930Z,42.07
2022-11-02T12:02:42.977Z,42.67
2022-11-02T12:06:57.861Z,41.76
2022-11-02T12:11:24.796Z,41.38
2022-11-02T12:15:45.311Z,38.88
2022-11-02T12:20:15.494Z,37.42
2022-11-02T12:24:49.707Z,37.60
2022-11-02T12:29:10.446Z,40.01
2022-11-02T12:33:37.516Z,40.72
2022-11-02T12:38:00.429Z,41.57
2022-11-02T12:42:20.470Z,42.30
2022-11-02T12:46:39.086Z,42.62
2022-11-02T12:51:00.856Z,42.97
2022-11-02T12:55:12.105Z,43.37
2022-11-02T12:59:24.431Z,43.85
2022-11-02T13:03:38.587Z,44.60
2022-11-02T13:07:47.254Z,45.07
2022-11-02T13:11:59.422Z,44.70
2022-11-02T13:16:00.759Z,44.81
2022-11-02T13:20:08.452Z,42.70
2022-11-02T13:24:16.224Z,40.75
2022-11-02T13:28:33.894Z,39.60
2022-11-02T13:32:41.985Z,38.43
2022-11-02T13:36:43.306Z,38.81
2022-11-02T13:40:50.719Z,39.75
2022-11-02T13:45:37.548Z,41.43
2022-11-02T13:49:43.252Z,41.46
2022-11-02T13:53:52.236Z,41.69
2022-11-02T13:57:57.696Z,42.51
2022-11-02T14:02:04.465Z,40.57
2022-11-02T14:06:14.051Z,40.00
2022-11-02T14:10:21.711Z,39.47
2022-11-02T14:14:26.050Z,39.30
2022-11-02T14:18:35.465Z,38.17
2022-11-02T14:22:35.686Z,37.28
2022-11-02T14:26:59.606Z,37.82
2022-11-02T14:31:28.766Z,38.47
2022-11-02T14:35:59.564Z,37.98
2022-11-02T14:40:14.348Z,38.16
2022-11-02T14:45:03.236Z,37.53
2022-11-02T14:49:06.509Z,36.18
2022-11-02T14:53:21.742Z,35.66
2022-11-02T14:57:28.821Z,35.25
2022-11-02T15:01:29.074Z,34.55
2022-11-02T15:05:33.880Z,34.99
2022-11-02T15:10:02.496Z,36.42
2022-11-02T15:14:02.611Z,36.30
2022-11-02T15:18:25.127Z,37.93
2022-11-02T15:22:40.740Z,38.63
2022-11-02T15:26:50.987Z,39.25
2022-11-02T15:30:55.658Z,39.61
2022-11-02T15:34:58.423Z,40.49
2022-11-02T15:38:59.667Z,41.51
2022-11-02T15:43:28.544Z,42.00
2022-11-02T15:47:45.805Z,43.41
2022-11-02T15:51:58.502Z,44.58
2022-11-02T15:56:23.986Z,45.32
2022-11-02T16:00:30.400Z,46.21
2022-11-02T16:04:31.364Z,46.61
2022-11-02T16:08:38.034Z,47.39
2022-11-02T16:12:38.240Z,47.89
2022-11-02T16:16:50.524Z,48.34
2022-11-02T16:20:50.833Z,49.13
2022-11-02T16:24:52.230Z,49.44
2022-11-02T16:28:55.145Z,50.25
2022-11-02T16:33:04.710Z,50.54
2022-11-02T16:37:10.350Z,50.91
2022-11-02T16:41:12.598Z,51.53
2022-11-02T16:45:43.276Z,51.32
2022-11-02T16:50:04.276Z,51.69
2022-11-02T16:54:30.336Z,52.94
2022-11-02T16:58:31.764Z,52.51
2022-11-02T17:02:41.146Z,52.81
2022-11-02T17:06:47.132Z,53.51
2022-11-02T17:10:48.098Z,53.92
2022-11-02T17:14:51.895Z,54.09
2022-11-02T17:18:52.146Z,54.42
2022-11-02T17:23:01.761Z,55.21
2022-11-02T17:27:21.707Z,55.50
2022-11-02T17:31:25.498Z,55.88
2022-11-02T17:35:27.425Z,56.43
2022-11-02T17:39:30.691Z,56.65
2022-11-02T17:43:31.136Z,56.94
2022-11-02T17:47:32.435Z,57.08
2022-11-02T17:51:33.250Z,57.14
2022-11-02T17:55:37.693Z,58.02
2022-11-02T17:59:37.798Z,58.16
2022-11-02T18:03:37.921Z,58.48
2022-11-02T18:07:38.080Z,58.38
2022-11-02T18:11:40.826Z,58.56
2022-11-02T18:15:41.352Z,58.16
2022-11-02T18:19:41.403Z,58.19
2022-11-02T18:23:43.498Z,58.54
2022-11-02T18:27:46.522Z,58.81
2022-11-02T18:31:46.734Z,58.94
2022-11-02T18:35:47.325Z,59.01
2022-11-02T18:39:47.516Z,59.06
2022-11-02T18:43:50.272Z,59.18
2022-11-02T18:47:50.459Z,58.92
2022-11-02T18:51:50.606Z,58.90
2022-11-02T18:55:50.804Z,58.63
2022-11-02T18:59:53.551Z,59.20
2022-11-02T19:03:54.259Z,59.07
2022-11-02T19:08:07.082Z,59.36
2022-11-02T19:12:11.628Z,59.59
2022-11-02T19:16:14.396Z,59.77
2022-11-02T19:20:15.001Z,59.55
2022-11-02T19:24:15.724Z,59.49
2022-11-02T19:28:15.883Z,59.45
2022-11-02T19:32:19.539Z,59.59
2022-11-02T19:36:20.034Z,59.52
2022-11-02T19:40:20.097Z,59.07
2022-11-02T19:44:20.484Z,59.82
2022-11-02T19:48:23.190Z,59.64
2022-11-02T19:52:23.972Z,59.16
2022-11-02T19:56:27.446Z,59.30
2022-11-02T20:00:27.628Z,58.76
2022-11-02T20:04:30.474Z,59.03
2022-11-02T20:08:30.606Z,59.17
2022-11-02T20:12:30.643Z,59.09
2022-11-02T20:16:31.662Z,59.89
2022-11-02T20:20:34.476Z,59.67
2022-11-02T20:24:34.631Z,59.47
2022-11-02T20:28:35.179Z,60.66
2022-11-02T20:32:35.273Z,60.39
2022-11-02T20:36:39.441Z,59.91
2022-11-02T20:40:41.394Z,59.92
2022-11-02T20:44:42.139Z,60.07
2022-11-02T20:48:42.398Z,60.10
2022-11-02T20:52:46.804Z,59.90
2022-11-02T20:56:46.949Z,60.19
2022-11-02T21:00:49.275Z,60.54
2022-11-02T21:04:49.654Z,60.61
2022-11-02T21:08:52.532Z,60.40
2022-11-02T21:13:05.518Z,60.37
2022-11-02T21:17:07.887Z,60.44
2022-11-02T21:21:10.530Z,60.46
2022-11-02T21:25:14.413Z,59.80
2022-11-02T21:29:14.828Z,60.45
2022-11-02T21:33:14.911Z,59.97
2022-11-02T21:37:15.044Z,60.01
2022-11-02T21:41:26.123Z,59.86
2022-11-02T21:45:26.527Z,60.30
2022-11-02T21:49:26.831Z,60.51
2022-11-02T21:53:27.165Z,61.04
2022-11-02T21:57:29.923Z,60.50
2022-11-02T22:01:49.316Z,60.46
2022-11-02T22:05:59.671Z,60.78
2022-11-02T22:09:59.979Z,60.60
2022-11-02T22:14:04.036Z,61.06
2022-11-02T22:18:04.208Z,60.47
2022-11-02T22:22:05.145Z,60.02
2022-11-02T22:26:08.919Z,60.08
2022-11-02T22:30:13.855Z,60.08
2022-11-02T22:34:16.252Z,59.82
2022-11-02T22:38:28.882Z,60.16
2022-11-02T22:42:29.021Z,60.44
2022-11-02T22:46:35.185Z,60.35
2022-11-02T22:50:35.347Z,60.39
2022-11-02T22:54:35.467Z,60.37
2022-11-02T22:58:36.306Z,60.71
2022-11-02T23:02:39.113Z,60.38
2022-11-02T23:06:39.205Z,60.35
2022-11-02T23:10:54.477Z,60.88
2022-11-02T23:14:54.830Z,60.51
2022-11-02T23:19:18.892Z,60.36
2022-11-02T23:23:36.081Z,60.38
2022-11-02T23:28:00.130Z,60.58
2022-11-02T23:32:12.958Z,60.80
2022-11-02T23:36:16.142Z,60.36
2022-11-02T23:40:20.140Z,60.14
2022-11-02T23:44:20.319Z,60.32
2022-11-02T23:48:20.510Z,60.21
2022-11-02T23:52:35.699Z,61.18
2022-11-02T23:56:46.589Z,61.35
